sensor_id;sensor_type;location;lat;lon;timestamp;temperature;humidity
21823;DHT22;11074;48.596;9.238;2023-09-18T00:00:04;19.00;99.90
21823;DHT22;11074;48.596;9.238;2023-09-18T00:02:36;18.90;99.90
21823;DHT22;11074;48.596;9.238;2023-09-18T00:05:02;19.00;99.90
21823;DHT22;11074;48.596;9.238;2023-09-18T00:07:28;19.00;99.90
21823;DHT22;11074;48.596;9.238;2023-09-18T00:09:54;18.90;99.90
21823;DHT22;11074;48.596;9.238;2023-09-18T00:12:19;18.90;99.90
21823;DHT22;11074;48.596;9.238;2023-09-18T00:14:48;18.80;99.90
21823;DHT22;11074;48.596;9.238;2023-09-18T00:17:15;18.90;99.90
21823;DHT22;11074;48.596;9.238;2023-09-18T00:19:42;19.00;99.90
21823;DHT22;11074;48.596;9.238;2023-09-18T00:22:08;19.10;99.90
21823;DHT22;11074;48.596;9.238;2023-09-18T00:24:34;19.00;99.90
21823;DHT22;11074;48.596;9.238;2023-09-18T00:27:00;19.10;99.90
21823;DHT22;11074;48.596;9.238;2023-09-18T00:29:25;19.00;99.90
21823;DHT22;11074;48.596;9.238;2023-09-18T00:31:51;19.10;99.90
21823;DHT22;11074;48.596;9.238;2023-09-18T00:34:17;19.10;99.90
21823;DHT22;11074;48.596;9.238;2023-09-18T00:36:42;19.20;99.90
21823;DHT22;11074;48.596;9.238;2023-09-18T00:39:08;19.20;99.90
21823;DHT22;11074;48.596;9.238;2023-09-18T00:41:34;19.10;99.90
21823;DHT22;11074;48.596;9.238;2023-09-18T00:43:59;19.10;99.90
21823;DHT22;11074;48.596;9.238;2023-09-18T00:46:25;19.20;99.90
21823;DHT22;11074;48.596;9.238;2023-09-18T00:48:52;19.20;99.90
21823;DHT22;11074;48.596;9.238;2023-09-18T00:51:19;19.10;99.90
21823;DHT22;11074;48.596;9.238;2023-09-18T00:53:47;19.10;99.90
21823;DHT22;11074;48.596;9.238;2023-09-18T00:56:14;18.90;99.90
21823;DHT22;11074;48.596;9.238;2023-09-18T00:58:41;18.80;99.90
21823;DHT22;11074;48.596;9.238;2023-09-18T01:01:07;18.80;99.90
21823;DHT22;11074;48.596;9.238;2023-09-18T01:03:34;18.80;99.90
21823;DHT22;11074;48.596;9.238;2023-09-18T01:06:00;18.70;99.90
21823;DHT22;11074;48.596;9.238;2023-09-18T01:08:25;18.80;99.90
21823;DHT22;11074;48.596;9.238;2023-09-18T01:11:00;18.90;99.90
21823;DHT22;11074;48.596;9.238;2023-09-18T01:13:38;18.80;99.90
21823;DHT22;11074;48.596;9.238;2023-09-18T01:16:39;18.60;99.90
21823;DHT22;11074;48.596;9.238;2023-09-18T01:19:34;18.60;99.90
21823;DHT22;11074;48.596;9.238;2023-09-18T01:22:03;18.60;99.90
21823;DHT22;11074;48.596;9.238;2023-09-18T01:24:34;18.60;99.90
21823;DHT22;11074;48.596;9.238;2023-09-18T01:27:01;18.60;99.90
21823;DHT22;11074;48.596;9.238;2023-09-18T01:29:29;18.70;99.90
21823;DHT22;11074;48.596;9.238;2023-09-18T01:31:56;18.60;99.90
21823;DHT22;11074;48.596;9.238;2023-09-18T01:34:26;18.70;99.90
21823;DHT22;11074;48.596;9.238;2023-09-18T01:36:59;18.80;99.90
21823;DHT22;11074;48.596;9.238;2023-09-18T01:39:27;18.80;99.90
21823;DHT22;11074;48.596;9.238;2023-09-18T01:42:00;18.80;99.90
21823;DHT22;11074;48.596;9.238;2023-09-18T01:44:28;18.90;99.90
21823;DHT22;11074;48.596;9.238;2023-09-18T01:46:57;18.90;99.90
21823;DHT22;11074;48.596;9.238;2023-09-18T01:49:38;19.00;99.90
21823;DHT22;11074;48.596;9.238;2023-09-18T01:52:05;19.20;99.90
21823;DHT22;11074;48.596;9.238;2023-09-18T01:54:33;19.20;99.90
21823;DHT22;11074;48.596;9.238;2023-09-18T01:57:00;19.30;99.90
21823;DHT22;11074;48.596;9.238;2023-09-18T01:59:26;19.30;99.90
21823;DHT22;11074;48.596;9.238;2023-09-18T02:01:53;19.50;99.90
21823;DHT22;11074;48.596;9.238;2023-09-18T02:04:19;19.40;99.90
21823;DHT22;11074;48.596;9.238;2023-09-18T02:06:47;19.40;99.90
21823;DHT22;11074;48.596;9.238;2023-09-18T02:09:14;19.40;99.90
21823;DHT22;11074;48.596;9.238;2023-09-18T02:11:42;19.40;99.90
21823;DHT22;11074;48.596;9.238;2023-09-18T02:14:10;19.30;99.90
21823;DHT22;11074;48.596;9.238;2023-09-18T02:16:37;19.20;99.90
21823;DHT22;11074;48.596;9.238;2023-09-18T02:19:09;19.20;99.90
21823;DHT22;11074;48.596;9.238;2023-09-18T02:21:36;19.20;99.90
21823;DHT22;11074;48.596;9.238;2023-09-18T02:24:02;19.10;99.90
21823;DHT22;11074;48.596;9.238;2023-09-18T02:26:29;18.90;99.90
21823;DHT22;11074;48.596;9.238;2023-09-18T02:29:00;18.90;99.90
21823;DHT22;11074;48.596;9.238;2023-09-18T02:31:27;18.80;99.90
21823;DHT22;11074;48.596;9.238;2023-09-18T02:33:53;18.80;99.90
21823;DHT22;11074;48.596;9.238;2023-09-18T02:36:19;18.80;99.90
21823;DHT22;11074;48.596;9.238;2023-09-18T02:38:45;18.80;99.90
21823;DHT22;11074;48.596;9.238;2023-09-18T02:41:10;18.90;99.90
21823;DHT22;11074;48.596;9.238;2023-09-18T02:43:36;18.90;99.90
21823;DHT22;11074;48.596;9.238;2023-09-18T02:46:05;19.00;99.90
21823;DHT22;11074;48.596;9.238;2023-09-18T02:48:32;19.00;99.90
21823;DHT22;11074;48.596;9.238;2023-09-18T02:50:59;18.80;99.90
21823;DHT22;11074;48.596;9.238;2023-09-18T02:53:25;18.70;99.90
21823;DHT22;11074;48.596;9.238;2023-09-18T02:55:53;18.60;99.90
21823;DHT22;11074;48.596;9.238;2023-09-18T02:58:20;18.60;99.90
21823;DHT22;11074;48.596;9.238;2023-09-18T03:00:49;18.70;99.90
21823;DHT22;11074;48.596;9.238;2023-09-18T03:03:16;18.80;99.90
21823;DHT22;11074;48.596;9.238;2023-09-18T03:05:43;18.90;99.90
21823;DHT22;11074;48.596;9.238;2023-09-18T03:08:11;19.10;99.90
21823;DHT22;11074;48.596;9.238;2023-09-18T03:10:41;19.10;99.90
21823;DHT22;11074;48.596;9.238;2023-09-18T03:13:09;19.10;99.90
21823;DHT22;11074;48.596;9.238;2023-09-18T03:15:36;19.10;99.90
21823;DHT22;11074;48.596;9.238;2023-09-18T03:18:04;19.20;99.90
21823;DHT22;11074;48.596;9.238;2023-09-18T03:20:32;19.10;99.90
21823;DHT22;11074;48.596;9.238;2023-09-18T03:23:00;19.00;99.90
21823;DHT22;11074;48.596;9.238;2023-09-18T03:25:27;18.70;99.90
21823;DHT22;11074;48.596;9.238;2023-09-18T03:27:54;18.50;99.90
21823;DHT22;11074;48.596;9.238;2023-09-18T03:30:22;18.40;99.90
21823;DHT22;11074;48.596;9.238;2023-09-18T03:32:52;18.40;99.90
21823;DHT22;11074;48.596;9.238;2023-09-18T03:35:19;18.40;99.90
21823;DHT22;11074;48.596;9.238;2023-09-18T03:37:52;18.40;99.90
21823;DHT22;11074;48.596;9.238;2023-09-18T03:40:21;18.30;99.90
21823;DHT22;11074;48.596;9.238;2023-09-18T03:42:48;18.40;99.90
21823;DHT22;11074;48.596;9.238;2023-09-18T03:45:17;18.50;99.90
21823;DHT22;11074;48.596;9.238;2023-09-18T03:47:44;18.50;99.90
21823;DHT22;11074;48.596;9.238;2023-09-18T03:50:10;18.50;99.90
21823;DHT22;11074;48.596;9.238;2023-09-18T03:52:37;18.50;99.90
21823;DHT22;11074;48.596;9.238;2023-09-18T03:55:05;18.60;99.90
21823;DHT22;11074;48.596;9.238;2023-09-18T03:57:32;18.70;99.90
21823;DHT22;11074;48.596;9.238;2023-09-18T03:59:57;18.90;99.90
21823;DHT22;11074;48.596;9.238;2023-09-18T04:02:25;19.20;99.90
21823;DHT22;11074;48.596;9.238;2023-09-18T04:04:53;19.30;99.90
21823;DHT22;11074;48.596;9.238;2023-09-18T04:07:19;19.30;99.90
21823;DHT22;11074;48.596;9.238;2023-09-18T04:09:46;19.30;99.90
21823;DHT22;11074;48.596;9.238;2023-09-18T04:12:12;19.30;99.90
21823;DHT22;11074;48.596;9.238;2023-09-18T04:14:38;19.20;99.90
21823;DHT22;11074;48.596;9.238;2023-09-18T04:17:04;19.10;99.90
21823;DHT22;11074;48.596;9.238;2023-09-18T04:19:30;19.20;99.90
21823;DHT22;11074;48.596;9.238;2023-09-18T04:21:56;19.10;99.90
21823;DHT22;11074;48.596;9.238;2023-09-18T04:24:22;19.10;99.90
21823;DHT22;11074;48.596;9.238;2023-09-18T04:26:48;19.10;99.90
21823;DHT22;11074;48.596;9.238;2023-09-18T04:29:18;19.00;99.90
21823;DHT22;11074;48.596;9.238;2023-09-18T04:31:45;19.00;99.90
21823;DHT22;11074;48.596;9.238;2023-09-18T04:34:11;19.00;99.90
21823;DHT22;11074;48.596;9.238;2023-09-18T04:36:37;19.00;99.90
21823;DHT22;11074;48.596;9.238;2023-09-18T04:39:04;18.80;99.90
21823;DHT22;11074;48.596;9.238;2023-09-18T04:41:31;18.60;99.90
21823;DHT22;11074;48.596;9.238;2023-09-18T04:43:57;18.70;99.90
21823;DHT22;11074;48.596;9.238;2023-09-18T04:46:23;18.60;99.90
21823;DHT22;11074;48.596;9.238;2023-09-18T04:48:50;18.80;99.90
21823;DHT22;11074;48.596;9.238;2023-09-18T04:51:16;18.80;99.90
21823;DHT22;11074;48.596;9.238;2023-09-18T04:53:42;18.80;99.90
21823;DHT22;11074;48.596;9.238;2023-09-18T04:56:08;18.90;99.90
21823;DHT22;11074;48.596;9.238;2023-09-18T04:58:35;18.90;99.90
21823;DHT22;11074;48.596;9.238;2023-09-18T05:01:03;18.80;99.90
21823;DHT22;11074;48.596;9.238;2023-09-18T05:03:33;18.70;99.90
21823;DHT22;11074;48.596;9.238;2023-09-18T05:05:59;18.60;99.90
21823;DHT22;11074;48.596;9.238;2023-09-18T05:08:25;18.40;99.90
21823;DHT22;11074;48.596;9.238;2023-09-18T05:10:51;18.50;99.90
21823;DHT22;11074;48.596;9.238;2023-09-18T05:13:16;18.50;99.90
21823;DHT22;11074;48.596;9.238;2023-09-18T05:15:42;18.60;99.90
21823;DHT22;11074;48.596;9.238;2023-09-18T05:18:08;18.60;99.90
21823;DHT22;11074;48.596;9.238;2023-09-18T05:20:34;18.60;99.90
21823;DHT22;11074;48.596;9.238;2023-09-18T05:23:00;18.60;99.90
21823;DHT22;11074;48.596;9.238;2023-09-18T05:25:28;18.50;99.90
21823;DHT22;11074;48.596;9.238;2023-09-18T05:27:58;18.50;99.90
21823;DHT22;11074;48.596;9.238;2023-09-18T05:30:33;18.20;99.90
21823;DHT22;11074;48.596;9.238;2023-09-18T05:33:01;18.30;99.90
21823;DHT22;11074;48.596;9.238;2023-09-18T05:35:39;18.40;99.90
21823;DHT22;11074;48.596;9.238;2023-09-18T05:38:06;18.40;99.90
21823;DHT22;11074;48.596;9.238;2023-09-18T05:40:32;18.50;99.90
21823;DHT22;11074;48.596;9.238;2023-09-18T05:42:58;18.50;99.90
21823;DHT22;11074;48.596;9.238;2023-09-18T05:45:24;18.50;99.90
21823;DHT22;11074;48.596;9.238;2023-09-18T05:47:50;18.40;99.90
21823;DHT22;11074;48.596;9.238;2023-09-18T05:50:16;18.30;99.90
21823;DHT22;11074;48.596;9.238;2023-09-18T05:52:44;18.40;99.90
21823;DHT22;11074;48.596;9.238;2023-09-18T05:55:10;18.40;99.90
21823;DHT22;11074;48.596;9.238;2023-09-18T05:57:36;18.40;99.90
21823;DHT22;11074;48.596;9.238;2023-09-18T06:00:03;18.40;99.90
21823;DHT22;11074;48.596;9.238;2023-09-18T06:02:29;18.50;99.90
21823;DHT22;11074;48.596;9.238;2023-09-18T06:04:55;18.60;99.90
21823;DHT22;11074;48.596;9.238;2023-09-18T06:07:27;18.50;99.90
21823;DHT22;11074;48.596;9.238;2023-09-18T06:09:53;18.60;99.90
21823;DHT22;11074;48.596;9.238;2023-09-18T06:12:19;18.60;99.90
21823;DHT22;11074;48.596;9.238;2023-09-18T06:14:45;18.60;99.90
21823;DHT22;11074;48.596;9.238;2023-09-18T06:17:12;18.60;99.90
21823;DHT22;11074;48.596;9.238;2023-09-18T06:19:37;18.70;99.90
21823;DHT22;11074;48.596;9.238;2023-09-18T06:22:04;18.70;99.90
21823;DHT22;11074;48.596;9.238;2023-09-18T06:24:30;18.80;99.90
21823;DHT22;11074;48.596;9.238;2023-09-18T06:26:55;18.80;99.90
21823;DHT22;11074;48.596;9.238;2023-09-18T06:29:21;18.80;99.90
21823;DHT22;11074;48.596;9.238;2023-09-18T06:31:46;18.80;99.90
21823;DHT22;11074;48.596;9.238;2023-09-18T06:34:12;18.70;99.90
21823;DHT22;11074;48.596;9.238;2023-09-18T06:36:38;18.60;99.90
21823;DHT22;11074;48.596;9.238;2023-09-18T06:39:04;18.60;99.90
21823;DHT22;11074;48.596;9.238;2023-09-18T06:41:29;18.60;99.90
21823;DHT22;11074;48.596;9.238;2023-09-18T06:43:55;18.60;99.90
21823;DHT22;11074;48.596;9.238;2023-09-18T06:46:22;18.60;99.90
21823;DHT22;11074;48.596;9.238;2023-09-18T06:48:48;18.60;99.90
21823;DHT22;11074;48.596;9.238;2023-09-18T06:51:16;18.60;99.90
21823;DHT22;11074;48.596;9.238;2023-09-18T06:53:43;18.50;99.90
21823;DHT22;11074;48.596;9.238;2023-09-18T06:56:09;18.50;99.90
21823;DHT22;11074;48.596;9.238;2023-09-18T06:58:35;18.60;99.90
21823;DHT22;11074;48.596;9.238;2023-09-18T07:01:01;18.70;99.90
21823;DHT22;11074;48.596;9.238;2023-09-18T07:03:26;18.70;99.90
21823;DHT22;11074;48.596;9.238;2023-09-18T07:05:52;18.80;99.90
21823;DHT22;11074;48.596;9.238;2023-09-18T07:08:17;18.80;99.90
21823;DHT22;11074;48.596;9.238;2023-09-18T07:10:49;18.90;99.90
21823;DHT22;11074;48.596;9.238;2023-09-18T07:13:15;18.90;99.90
21823;DHT22;11074;48.596;9.238;2023-09-18T07:15:41;18.90;99.90
21823;DHT22;11074;48.596;9.238;2023-09-18T07:18:07;19.00;99.90
21823;DHT22;11074;48.596;9.238;2023-09-18T07:20:32;19.20;99.90
21823;DHT22;11074;48.596;9.238;2023-09-18T07:22:58;19.20;99.90
21823;DHT22;11074;48.596;9.238;2023-09-18T07:25:24;19.30;99.90
21823;DHT22;11074;48.596;9.238;2023-09-18T07:27:50;19.40;99.90
21823;DHT22;11074;48.596;9.238;2023-09-18T07:30:15;19.40;99.90
21823;DHT22;11074;48.596;9.238;2023-09-18T07:32:42;19.50;99.90
21823;DHT22;11074;48.596;9.238;2023-09-18T07:35:09;19.50;99.90
21823;DHT22;11074;48.596;9.238;2023-09-18T07:37:36;19.50;99.90
21823;DHT22;11074;48.596;9.238;2023-09-18T07:40:03;19.50;99.90
21823;DHT22;11074;48.596;9.238;2023-09-18T07:42:33;19.50;99.90
21823;DHT22;11074;48.596;9.238;2023-09-18T07:44:59;19.60;99.90
21823;DHT22;11074;48.596;9.238;2023-09-18T07:47:25;19.60;99.90
21823;DHT22;11074;48.596;9.238;2023-09-18T07:49:51;19.70;99.90
21823;DHT22;11074;48.596;9.238;2023-09-18T07:52:17;19.80;99.90
21823;DHT22;11074;48.596;9.238;2023-09-18T07:54:43;19.90;99.90
21823;DHT22;11074;48.596;9.238;2023-09-18T07:57:09;20.00;99.90
21823;DHT22;11074;48.596;9.238;2023-09-18T07:59:38;20.10;99.90
21823;DHT22;11074;48.596;9.238;2023-09-18T08:02:07;20.20;99.90
21823;DHT22;11074;48.596;9.238;2023-09-18T08:04:35;20.30;99.90
21823;DHT22;11074;48.596;9.238;2023-09-18T08:07:00;20.40;99.90
21823;DHT22;11074;48.596;9.238;2023-09-18T08:09:26;20.50;99.90
21823;DHT22;11074;48.596;9.238;2023-09-18T08:11:55;20.50;99.90
21823;DHT22;11074;48.596;9.238;2023-09-18T08:14:21;20.50;99.90
21823;DHT22;11074;48.596;9.238;2023-09-18T08:16:47;20.50;99.90
21823;DHT22;11074;48.596;9.238;2023-09-18T08:19:16;20.60;99.90
21823;DHT22;11074;48.596;9.238;2023-09-18T08:21:42;20.50;99.90
21823;DHT22;11074;48.596;9.238;2023-09-18T08:24:08;20.60;99.90
21823;DHT22;11074;48.596;9.238;2023-09-18T08:26:34;20.60;99.90
21823;DHT22;11074;48.596;9.238;2023-09-18T08:28:59;20.60;99.90
21823;DHT22;11074;48.596;9.238;2023-09-18T08:31:25;20.60;99.90
21823;DHT22;11074;48.596;9.238;2023-09-18T08:33:52;20.60;99.90
21823;DHT22;11074;48.596;9.238;2023-09-18T08:36:18;20.50;99.90
21823;DHT22;11074;48.596;9.238;2023-09-18T08:38:44;20.40;99.90
21823;DHT22;11074;48.596;9.238;2023-09-18T08:41:12;20.30;99.90
21823;DHT22;11074;48.596;9.238;2023-09-18T08:43:41;20.20;99.90
21823;DHT22;11074;48.596;9.238;2023-09-18T08:46:08;20.10;99.90
21823;DHT22;11074;48.596;9.238;2023-09-18T08:48:34;19.90;99.90
21823;DHT22;11074;48.596;9.238;2023-09-18T08:51:02;19.80;99.90
21823;DHT22;11074;48.596;9.238;2023-09-18T08:53:35;19.60;99.90
21823;DHT22;11074;48.596;9.238;2023-09-18T08:56:02;19.50;99.90
21823;DHT22;11074;48.596;9.238;2023-09-18T08:58:37;19.30;99.90
21823;DHT22;11074;48.596;9.238;2023-09-18T09:01:06;19.10;99.90
21823;DHT22;11074;48.596;9.238;2023-09-18T09:03:38;19.10;99.90
21823;DHT22;11074;48.596;9.238;2023-09-18T09:06:07;19.00;99.90
21823;DHT22;11074;48.596;9.238;2023-09-18T09:08:35;19.00;99.90
21823;DHT22;11074;48.596;9.238;2023-09-18T09:11:03;19.00;99.90
21823;DHT22;11074;48.596;9.238;2023-09-18T09:13:29;18.90;99.90
21823;DHT22;11074;48.596;9.238;2023-09-18T09:15:57;18.80;99.90
21823;DHT22;11074;48.596;9.238;2023-09-18T09:18:28;18.90;99.90
21823;DHT22;11074;48.596;9.238;2023-09-18T09:21:02;18.90;99.90
21823;DHT22;11074;48.596;9.238;2023-09-18T09:23:48;18.90;99.90
21823;DHT22;11074;48.596;9.238;2023-09-18T09:26:19;18.90;99.90
21823;DHT22;11074;48.596;9.238;2023-09-18T09:28:47;19.00;99.90
21823;DHT22;11074;48.596;9.238;2023-09-18T09:31:24;19.10;99.90
21823;DHT22;11074;48.596;9.238;2023-09-18T09:33:54;19.10;99.90
21823;DHT22;11074;48.596;9.238;2023-09-18T09:36:24;19.20;99.90
21823;DHT22;11074;48.596;9.238;2023-09-18T09:38:57;19.20;99.90
21823;DHT22;11074;48.596;9.238;2023-09-18T09:41:26;19.20;99.90
21823;DHT22;11074;48.596;9.238;2023-09-18T09:43:53;19.10;99.90
21823;DHT22;11074;48.596;9.238;2023-09-18T09:46:20;19.10;99.90
21823;DHT22;11074;48.596;9.238;2023-09-18T09:51:27;19.10;99.90
21823;DHT22;11074;48.596;9.238;2023-09-18T09:53:54;19.10;99.90
21823;DHT22;11074;48.596;9.238;2023-09-18T09:56:19;19.30;99.90
21823;DHT22;11074;48.596;9.238;2023-09-18T09:59:06;19.40;99.90
21823;DHT22;11074;48.596;9.238;2023-09-18T10:01:35;19.40;99.90
21823;DHT22;11074;48.596;9.238;2023-09-18T10:04:05;19.40;99.90
21823;DHT22;11074;48.596;9.238;2023-09-18T10:06:35;19.50;99.90
21823;DHT22;11074;48.596;9.238;2023-09-18T10:09:03;19.40;99.90
21823;DHT22;11074;48.596;9.238;2023-09-18T10:11:34;19.40;99.90
21823;DHT22;11074;48.596;9.238;2023-09-18T10:14:20;19.30;99.90
21823;DHT22;11074;48.596;9.238;2023-09-18T10:16:54;19.30;99.90
21823;DHT22;11074;48.596;9.238;2023-09-18T10:19:32;19.20;99.90
21823;DHT22;11074;48.596;9.238;2023-09-18T10:24:59;19.30;99.90
21823;DHT22;11074;48.596;9.238;2023-09-18T10:27:33;19.20;99.90
21823;DHT22;11074;48.596;9.238;2023-09-18T10:30:00;19.20;99.90
21823;DHT22;11074;48.596;9.238;2023-09-18T10:32:30;19.20;99.90
21823;DHT22;11074;48.596;9.238;2023-09-18T10:34:57;19.20;99.90
21823;DHT22;11074;48.596;9.238;2023-09-18T10:37:26;19.30;99.90
21823;DHT22;11074;48.596;9.238;2023-09-18T10:39:56;19.20;99.90
21823;DHT22;11074;48.596;9.238;2023-09-18T10:42:24;19.20;99.90
21823;DHT22;11074;48.596;9.238;2023-09-18T10:44:51;19.10;99.90
21823;DHT22;11074;48.596;9.238;2023-09-18T10:47:17;19.20;99.90
21823;DHT22;11074;48.596;9.238;2023-09-18T10:49:44;19.20;99.90
21823;DHT22;11074;48.596;9.238;2023-09-18T10:52:13;19.20;99.90
21823;DHT22;11074;48.596;9.238;2023-09-18T10:54:39;19.20;99.90
21823;DHT22;11074;48.596;9.238;2023-09-18T10:57:05;19.20;99.90
21823;DHT22;11074;48.596;9.238;2023-09-18T10:59:31;19.10;99.90
21823;DHT22;11074;48.596;9.238;2023-09-18T11:02:03;19.10;99.90
21823;DHT22;11074;48.596;9.238;2023-09-18T11:04:31;19.10;99.90
21823;DHT22;11074;48.596;9.238;2023-09-18T11:09:29;19.00;99.90
21823;DHT22;11074;48.596;9.238;2023-09-18T11:14:49;19.10;99.90
21823;DHT22;11074;48.596;9.238;2023-09-18T11:17:32;19.10;99.90
21823;DHT22;11074;48.596;9.238;2023-09-18T11:20:17;19.10;99.90
21823;DHT22;11074;48.596;9.238;2023-09-18T11:23:15;19.10;99.90
21823;DHT22;11074;48.596;9.238;2023-09-18T11:25:44;19.10;99.90
21823;DHT22;11074;48.596;9.238;2023-09-18T11:28:22;19.10;99.90
21823;DHT22;11074;48.596;9.238;2023-09-18T11:30:57;19.10;99.90
21823;DHT22;11074;48.596;9.238;2023-09-18T11:33:38;19.10;99.90
21823;DHT22;11074;48.596;9.238;2023-09-18T11:39:02;19.10;99.90
21823;DHT22;11074;48.596;9.238;2023-09-18T11:41:33;19.20;99.90
21823;DHT22;11074;48.596;9.238;2023-09-18T11:46:40;19.20;99.90
21823;DHT22;11074;48.596;9.238;2023-09-18T11:49:13;19.20;99.90
21823;DHT22;11074;48.596;9.238;2023-09-18T11:51:40;19.20;99.90
21823;DHT22;11074;48.596;9.238;2023-09-18T11:54:07;19.10;99.90
21823;DHT22;11074;48.596;9.238;2023-09-18T11:56:34;19.10;99.90
21823;DHT22;11074;48.596;9.238;2023-09-18T11:59:00;19.20;99.90
21823;DHT22;11074;48.596;9.238;2023-09-18T12:01:30;19.20;99.90
21823;DHT22;11074;48.596;9.238;2023-09-18T12:04:03;19.20;99.90
21823;DHT22;11074;48.596;9.238;2023-09-18T12:06:39;19.20;99.90
21823;DHT22;11074;48.596;9.238;2023-09-18T12:09:07;19.20;99.90
21823;DHT22;11074;48.596;9.238;2023-09-18T12:11:34;19.30;99.90
21823;DHT22;11074;48.596;9.238;2023-09-18T12:14:04;19.40;99.90
21823;DHT22;11074;48.596;9.238;2023-09-18T12:16:31;19.30;99.90
21823;DHT22;11074;48.596;9.238;2023-09-18T12:19:06;19.30;99.90
21823;DHT22;11074;48.596;9.238;2023-09-18T12:21:32;19.40;99.90
21823;DHT22;11074;48.596;9.238;2023-09-18T12:23:58;19.40;99.90
21823;DHT22;11074;48.596;9.238;2023-09-18T12:26:25;19.40;99.90
21823;DHT22;11074;48.596;9.238;2023-09-18T12:28:51;19.30;99.90
21823;DHT22;11074;48.596;9.238;2023-09-18T12:31:17;19.40;99.90
21823;DHT22;11074;48.596;9.238;2023-09-18T12:33:44;19.50;99.90
21823;DHT22;11074;48.596;9.238;2023-09-18T12:36:10;19.50;99.90
21823;DHT22;11074;48.596;9.238;2023-09-18T12:38:37;19.60;99.90
21823;DHT22;11074;48.596;9.238;2023-09-18T12:41:04;19.80;99.90
21823;DHT22;11074;48.596;9.238;2023-09-18T12:43:44;19.80;99.90
21823;DHT22;11074;48.596;9.238;2023-09-18T12:46:11;19.90;99.90
21823;DHT22;11074;48.596;9.238;2023-09-18T12:48:37;20.00;99.90
21823;DHT22;11074;48.596;9.238;2023-09-18T12:51:07;20.10;99.90
21823;DHT22;11074;48.596;9.238;2023-09-18T12:53:33;20.20;99.90
21823;DHT22;11074;48.596;9.238;2023-09-18T12:56:10;20.20;99.90
21823;DHT22;11074;48.596;9.238;2023-09-18T12:58:41;20.30;99.90
21823;DHT22;11074;48.596;9.238;2023-09-18T13:01:09;20.40;99.90
21823;DHT22;11074;48.596;9.238;2023-09-18T13:03:46;20.60;99.90
21823;DHT22;11074;48.596;9.238;2023-09-18T13:06:16;20.70;99.90
21823;DHT22;11074;48.596;9.238;2023-09-18T13:08:43;20.70;99.90
21823;DHT22;11074;48.596;9.238;2023-09-18T13:11:09;20.70;99.90
21823;DHT22;11074;48.596;9.238;2023-09-18T13:13:37;20.80;99.90
21823;DHT22;11074;48.596;9.238;2023-09-18T13:16:07;20.80;99.90
21823;DHT22;11074;48.596;9.238;2023-09-18T13:18:38;20.80;99.90
21823;DHT22;11074;48.596;9.238;2023-09-18T13:21:13;20.80;99.90
21823;DHT22;11074;48.596;9.238;2023-09-18T13:23:40;20.90;99.90
21823;DHT22;11074;48.596;9.238;2023-09-18T13:26:07;20.90;99.90
21823;DHT22;11074;48.596;9.238;2023-09-18T13:28:34;21.00;99.90
21823;DHT22;11074;48.596;9.238;2023-09-18T13:31:05;21.30;99.90
21823;DHT22;11074;48.596;9.238;2023-09-18T13:33:32;21.50;99.90
21823;DHT22;11074;48.596;9.238;2023-09-18T13:36:03;21.70;99.90
21823;DHT22;11074;48.596;9.238;2023-09-18T13:38:29;21.90;99.90
21823;DHT22;11074;48.596;9.238;2023-09-18T13:40:56;22.10;99.90
21823;DHT22;11074;48.596;9.238;2023-09-18T13:43:22;22.00;99.90
21823;DHT22;11074;48.596;9.238;2023-09-18T13:45:51;21.90;99.90
21823;DHT22;11074;48.596;9.238;2023-09-18T13:48:18;21.70;99.90
21823;DHT22;11074;48.596;9.238;2023-09-18T13:50:44;21.60;99.90
21823;DHT22;11074;48.596;9.238;2023-09-18T13:53:11;21.60;99.90
21823;DHT22;11074;48.596;9.238;2023-09-18T13:55:37;21.50;99.90
21823;DHT22;11074;48.596;9.238;2023-09-18T13:58:03;21.50;99.90
21823;DHT22;11074;48.596;9.238;2023-09-18T14:00:29;21.50;99.90
21823;DHT22;11074;48.596;9.238;2023-09-18T14:02:55;21.50;99.90
21823;DHT22;11074;48.596;9.238;2023-09-18T14:05:20;21.40;99.90
21823;DHT22;11074;48.596;9.238;2023-09-18T14:07:47;21.40;99.90
21823;DHT22;11074;48.596;9.238;2023-09-18T14:10:13;21.30;99.90
21823;DHT22;11074;48.596;9.238;2023-09-18T14:12:41;21.30;99.90
21823;DHT22;11074;48.596;9.238;2023-09-18T14:15:08;21.30;99.90
21823;DHT22;11074;48.596;9.238;2023-09-18T14:17:36;21.30;99.90
21823;DHT22;11074;48.596;9.238;2023-09-18T14:20:03;21.30;99.90
21823;DHT22;11074;48.596;9.238;2023-09-18T14:22:33;21.20;99.90
21823;DHT22;11074;48.596;9.238;2023-09-18T14:25:00;21.20;99.90
21823;DHT22;11074;48.596;9.238;2023-09-18T14:27:29;21.30;99.90
21823;DHT22;11074;48.596;9.238;2023-09-18T14:29:55;21.30;99.90
21823;DHT22;11074;48.596;9.238;2023-09-18T14:32:21;21.40;99.90
21823;DHT22;11074;48.596;9.238;2023-09-18T14:34:47;21.40;99.90
21823;DHT22;11074;48.596;9.238;2023-09-18T14:37:19;21.40;99.90
21823;DHT22;11074;48.596;9.238;2023-09-18T14:39:45;21.40;99.90
21823;DHT22;11074;48.596;9.238;2023-09-18T14:42:11;21.40;99.90
21823;DHT22;11074;48.596;9.238;2023-09-18T14:44:37;21.40;99.90
21823;DHT22;11074;48.596;9.238;2023-09-18T14:47:09;21.40;99.90
21823;DHT22;11074;48.596;9.238;2023-09-18T14:49:35;21.50;99.90
21823;DHT22;11074;48.596;9.238;2023-09-18T14:52:00;21.50;99.90
21823;DHT22;11074;48.596;9.238;2023-09-18T14:54:26;21.50;99.90
21823;DHT22;11074;48.596;9.238;2023-09-18T14:56:52;21.60;99.90
21823;DHT22;11074;48.596;9.238;2023-09-18T14:59:20;21.60;99.90
21823;DHT22;11074;48.596;9.238;2023-09-18T15:01:46;21.60;99.90
21823;DHT22;11074;48.596;9.238;2023-09-18T15:04:14;21.50;99.90
21823;DHT22;11074;48.596;9.238;2023-09-18T15:06:40;21.60;99.90
21823;DHT22;11074;48.596;9.238;2023-09-18T15:09:05;21.60;99.90
21823;DHT22;11074;48.596;9.238;2023-09-18T15:11:33;21.60;99.90
21823;DHT22;11074;48.596;9.238;2023-09-18T15:14:01;21.60;99.90
21823;DHT22;11074;48.596;9.238;2023-09-18T15:16:27;21.60;99.90
21823;DHT22;11074;48.596;9.238;2023-09-18T15:18:55;21.60;99.90
21823;DHT22;11074;48.596;9.238;2023-09-18T15:21:24;21.60;99.90
21823;DHT22;11074;48.596;9.238;2023-09-18T15:23:50;21.60;99.90
21823;DHT22;11074;48.596;9.238;2023-09-18T15:26:16;21.60;99.90
21823;DHT22;11074;48.596;9.238;2023-09-18T15:28:42;21.60;99.90
21823;DHT22;11074;48.596;9.238;2023-09-18T15:31:08;21.60;99.90
21823;DHT22;11074;48.596;9.238;2023-09-18T15:33:34;21.70;99.90
21823;DHT22;11074;48.596;9.238;2023-09-18T15:36:00;21.60;99.90
21823;DHT22;11074;48.596;9.238;2023-09-18T15:38:25;21.70;99.90
21823;DHT22;11074;48.596;9.238;2023-09-18T15:40:52;21.80;99.90
21823;DHT22;11074;48.596;9.238;2023-09-18T15:43:17;21.70;99.90
21823;DHT22;11074;48.596;9.238;2023-09-18T15:45:43;21.70;99.90
21823;DHT22;11074;48.596;9.238;2023-09-18T15:48:09;21.60;99.90
21823;DHT22;11074;48.596;9.238;2023-09-18T15:50:35;21.60;99.90